createdAt,value
2022-08-27T05:56:28.630Z,16.20
2022-08-27T05:59:14.739Z,16.20
2022-08-27T06:01:45.989Z,16.30
2022-08-27T06:04:17.941Z,16.50
2022-08-27T06:06:47.339Z,16.70
2022-08-27T06:09:17.344Z,16.90
2022-08-27T06:11:46.754Z,17.00
2022-08-27T06:14:15.569Z,17.20
2022-08-27T06:16:44.019Z,17.40
2022-08-27T06:19:13.141Z,17.50
2022-08-27T06:21:41.781Z,17.70
2022-08-27T06:24:12.873Z,17.80
2022-08-27T06:26:43.031Z,17.80
2022-08-27T06:29:14.149Z,17.90
2022-08-27T06:31:42.930Z,18.00
2022-08-27T06:34:12.023Z,18.10
2022-08-27T06:36:42.514Z,18.20
2022-08-27T06:39:13.641Z,18.20
2022-08-27T06:41:42.899Z,18.30
2022-08-27T06:44:12.581Z,18.30
2022-08-27T06:46:40.909Z,18.40
2022-08-27T06:49:09.669Z,18.50
2022-08-27T06:51:39.196Z,18.60
2022-08-27T06:54:09.942Z,18.70
2022-08-27T06:56:37.941Z,18.70
2022-08-27T06:59:11.872Z,18.80
2022-08-27T07:01:43.440Z,19.00
2022-08-27T07:04:14.104Z,19.00
2022-08-27T07:06:42.889Z,19.10
2022-08-27T07:09:12.149Z,19.20
2022-08-27T07:11:40.202Z,19.20
2022-08-27T07:14:09.885Z,19.20
2022-08-27T07:16:40.991Z,19.30
2022-08-27T07:19:10.653Z,19.40
2022-08-27T07:21:40.871Z,19.40
2022-08-27T07:24:09.832Z,19.40
2022-08-27T07:26:42.994Z,19.40
2022-08-27T07:29:12.969Z,19.40
2022-08-27T07:31:40.980Z,19.40
2022-08-27T07:34:10.417Z,19.40
2022-08-27T07:36:38.929Z,19.30
2022-08-27T07:39:07.571Z,19.20
2022-08-27T07:41:58.313Z,19.20
2022-08-27T07:44:31.051Z,19.30
2022-08-27T07:47:03.075Z,19.50
2022-08-27T07:49:35.023Z,19.70
2022-08-27T07:52:03.297Z,19.90
2022-08-27T07:54:31.317Z,20.20
2022-08-27T07:56:59.315Z,20.30
2022-08-27T07:59:28.187Z,20.30
2022-08-27T08:01:57.432Z,20.30
2022-08-27T08:04:26.667Z,20.40
2022-08-27T08:06:56.574Z,20.50
2022-08-27T08:09:25.350Z,20.50
2022-08-27T08:11:54.896Z,20.60
2022-08-27T08:14:23.333Z,20.80
2022-08-27T08:16:51.530Z,21.00
2022-08-27T08:19:19.612Z,21.10
2022-08-27T08:21:47.604Z,21.20
2022-08-27T08:24:19.553Z,21.30
2022-08-27T08:26:47.548Z,21.40
2022-08-27T08:29:16.706Z,21.40
2022-08-27T08:31:49.856Z,21.40
2022-08-27T08:34:19.310Z,21.50
2022-08-27T08:36:53.782Z,21.60
2022-08-27T08:39:24.581Z,21.80
2022-08-27T08:41:55.412Z,22.10
2022-08-27T08:44:32.066Z,22.30
2022-08-27T08:47:04.633Z,22.40
2022-08-27T08:49:43.253Z,22.40
2022-08-27T08:52:31.158Z,22.40
2022-08-27T08:55:10.052Z,22.50
2022-08-27T08:57:41.870Z,22.50
2022-08-27T09:00:13.951Z,22.50
2022-08-27T09:02:45.603Z,22.60
2022-08-27T09:05:14.174Z,22.80
2022-08-27T09:07:51.523Z,23.00
2022-08-27T09:10:27.393Z,23.30
2022-08-27T09:13:00.876Z,23.70
2022-08-27T09:15:31.880Z,23.80
2022-08-27T09:18:07.926Z,23.90
2022-08-27T09:20:45.722Z,24.20
2022-08-27T09:23:21.869Z,24.50
2022-08-27T09:25:51.246Z,24.80
2022-08-27T09:28:42.083Z,24.50
2022-08-27T09:31:13.672Z,24.20
2022-08-27T09:33:55.957Z,23.80
2022-08-27T09:36:25.607Z,23.70
2022-08-27T09:38:58.148Z,23.40
2022-08-27T09:41:37.131Z,23.20
2022-08-27T09:44:11.741Z,22.80
2022-08-27T09:46:40.164Z,22.80
2022-08-27T09:49:12.069Z,22.60
2022-08-27T09:51:43.183Z,22.60
2022-08-27T09:54:12.857Z,22.60
2022-08-27T09:56:49.241Z,23.00
2022-08-27T09:59:23.688Z,23.40
2022-08-27T10:01:54.589Z,23.80
2022-08-27T10:04:28.408Z,23.90
2022-08-27T10:06:56.926Z,23.90
2022-08-27T10:09:36.577Z,23.90
2022-08-27T10:12:14.213Z,24.30
2022-08-27T10:14:46.449Z,24.80
2022-08-27T10:17:22.514Z,25.30
2022-08-27T10:20:00.911Z,25.50
2022-08-27T10:22:41.591Z,25.80
2022-08-27T10:25:30.025Z,26.20
2022-08-27T10:28:10.064Z,26.60
2022-08-27T10:30:53.622Z,26.30
2022-08-27T10:33:30.396Z,25.70
2022-08-27T10:36:07.940Z,25.20
2022-08-27T10:38:44.824Z,24.90
2022-08-27T10:41:18.615Z,24.60
2022-08-27T10:44:12.474Z,24.40
2022-08-27T10:47:00.916Z,24.60
2022-08-27T10:49:40.947Z,25.10
2022-08-27T10:52:18.176Z,25.70
2022-08-27T10:54:53.955Z,26.50
2022-08-27T10:57:53.949Z,27.00
2022-08-27T11:00:24.505Z,27.00
2022-08-27T11:02:56.118Z,27.10
2022-08-27T11:05:28.139Z,27.50
2022-08-27T11:08:01.751Z,27.60
2022-08-27T11:10:32.003Z,27.60
2022-08-27T11:13:09.922Z,27.80
2022-08-27T11:15:43.840Z,27.50
2022-08-27T11:18:19.276Z,27.00
2022-08-27T11:20:53.826Z,26.40
2022-08-27T11:23:27.170Z,26.30
2022-08-27T11:25:59.091Z,26.60
2022-08-27T11:28:37.585Z,27.00
2022-08-27T11:31:16.079Z,27.40
2022-08-27T11:33:52.476Z,27.90
2022-08-27T11:36:54.324Z,28.40
2022-08-27T11:39:32.551Z,28.80
2022-08-27T11:42:08.521Z,29.00
2022-08-27T11:44:44.089Z,29.50
2022-08-27T11:47:16.697Z,29.60
2022-08-27T11:49:47.995Z,29.60
2022-08-27T11:52:24.854Z,29.00
2022-08-27T11:54:57.025Z,28.60
2022-08-27T11:57:31.553Z,28.30
2022-08-27T12:00:00.998Z,28.60
2022-08-27T12:02:31.784Z,29.10
2022-08-27T12:05:10.216Z,29.70
2022-08-27T12:07:40.632Z,30.30
2022-08-27T12:10:27.794Z,30.00
2022-08-27T12:13:04.249Z,29.40
2022-08-27T12:15:55.573Z,29.10
2022-08-27T12:18:50.194Z,28.30
2022-08-27T12:21:33.754Z,27.70
2022-08-27T12:24:30.766Z,27.30
2022-08-27T12:27:02.623Z,27.10
2022-08-27T12:29:41.147Z,27.50
2022-08-27T12:32:26.214Z,27.90
2022-08-27T12:35:02.341Z,28.20
2022-08-27T12:37:34.842Z,28.70
2022-08-27T12:40:09.890Z,28.90
2022-08-27T12:42:37.916Z,29.60
2022-08-27T12:45:06.729Z,29.40
2022-08-27T12:47:42.566Z,29.20
2022-08-27T12:50:26.232Z,29.10
2022-08-27T12:53:22.917Z,29.60
2022-08-27T12:56:08.122Z,30.10
2022-08-27T12:58:50.671Z,29.60
2022-08-27T13:01:41.041Z,29.50
2022-08-27T13:04:21.283Z,29.10
2022-08-27T13:06:51.150Z,29.10
2022-08-27T13:09:28.743Z,28.90
2022-08-27T13:11:57.585Z,29.00
2022-08-27T13:14:29.359Z,29.50
2022-08-27T13:17:00.494Z,29.70
2022-08-27T13:19:32.120Z,30.20
2022-08-27T13:22:03.612Z,30.40
2022-08-27T13:24:33.583Z,30.30
2022-08-27T13:27:04.053Z,30.70
2022-08-27T13:29:32.465Z,30.60
2022-08-27T13:32:01.281Z,30.70
2022-08-27T13:34:40.898Z,31.10
2022-08-27T13:37:24.387Z,31.00
2022-08-27T13:39:55.041Z,31.10
2022-08-27T13:42:25.142Z,31.00
2022-08-27T13:44:56.544Z,30.50
2022-08-27T13:47:27.266Z,30.20
2022-08-27T13:50:04.097Z,30.20
2022-08-27T13:52:36.532Z,30.40
2022-08-27T13:55:07.775Z,30.40
2022-08-27T13:57:43.226Z,30.70
2022-08-27T14:00:15.144Z,30.40
2022-08-27T14:02:55.528Z,30.70
2022-08-27T14:05:31.086Z,30.50
2022-08-27T14:08:02.724Z,30.40
2022-08-27T14:10:34.237Z,30.30
2022-08-27T14:13:06.031Z,29.60
2022-08-27T14:15:38.376Z,29.30
2022-08-27T14:18:08.630Z,28.90
2022-08-27T14:20:37.670Z,29.00
2022-08-27T14:23:07.066Z,29.00
2022-08-27T14:25:35.152Z,28.90
2022-08-27T14:28:03.544Z,29.10
2022-08-27T14:30:32.037Z,29.30
2022-08-27T14:33:01.254Z,29.30
2022-08-27T14:35:30.598Z,29.60
2022-08-27T14:37:59.940Z,29.70
2022-08-27T14:40:29.353Z,29.50
2022-08-27T14:42:57.681Z,28.90
2022-08-27T14:45:25.796Z,28.40
2022-08-27T14:47:53.942Z,28.20
2022-08-27T14:50:30.110Z,28.30
2022-08-27T14:52:58.101Z,28.50
2022-08-27T14:55:26.120Z,28.80
2022-08-27T14:57:55.507Z,29.00
2022-08-27T15:00:23.488Z,29.10
2022-08-27T15:02:52.247Z,28.80
2022-08-27T15:05:24.188Z,28.60
2022-08-27T15:07:54.723Z,28.30
2022-08-27T15:10:22.698Z,28.00
2022-08-27T15:12:51.143Z,27.60
2022-08-27T15:15:20.588Z,27.20
2022-08-27T15:17:48.752Z,27.00
2022-08-27T15:20:20.214Z,26.70
2022-08-27T15:22:51.470Z,26.60
2022-08-27T15:25:20.287Z,26.50
2022-08-27T15:27:48.311Z,26.20
2022-08-27T15:30:18.453Z,26.30
2022-08-27T15:32:48.951Z,26.50
2022-08-27T15:35:20.969Z,26.70
2022-08-27T15:37:49.035Z,26.90
2022-08-27T15:40:18.958Z,27.20
2022-08-27T15:42:47.838Z,27.30
2022-08-27T15:45:16.052Z,27.20
2022-08-27T15:47:44.131Z,27.30
2022-08-27T15:50:14.102Z,27.20
2022-08-27T15:52:43.051Z,27.20
2022-08-27T15:55:22.382Z,27.20
2022-08-27T15:57:50.800Z,27.20
2022-08-27T16:00:20.242Z,27.30
2022-08-27T16:02:48.654Z,27.10
2022-08-27T16:05:19.185Z,27.10
2022-08-27T16:07:47.777Z,27.10
2022-08-27T16:10:16.491Z,26.70
2022-08-27T16:12:44.536Z,26.30
2022-08-27T16:15:13.565Z,26.00
2022-08-27T16:17:42.108Z,25.90
2022-08-27T16:20:13.539Z,25.40
2022-08-27T16:22:43.693Z,25.20
2022-08-27T16:25:15.337Z,25.10
2022-08-27T16:27:46.344Z,25.10
2022-08-27T16:30:15.372Z,24.90
2022-08-27T16:32:45.268Z,24.90
2022-08-27T16:35:15.463Z,24.90
2022-08-27T16:37:45.055Z,24.80
2022-08-27T16:40:13.651Z,24.80
2022-08-27T16:42:45.531Z,25.00
2022-08-27T16:45:14.513Z,25.00
2022-08-27T16:47:56.409Z,25.00
2022-08-27T16:50:36.643Z,25.10
2022-08-27T16:53:08.992Z,25.10
2022-08-27T16:55:37.584Z,25.00
2022-08-27T16:58:18.771Z,24.90
2022-08-27T17:00:48.141Z,24.80
2022-08-27T17:03:17.464Z,24.70
2022-08-27T17:05:45.495Z,24.70
2022-08-27T17:08:17.058Z,24.80
2022-08-27T17:10:49.567Z,24.60
2022-08-27T17:13:20.502Z,24.60
2022-08-27T17:15:53.162Z,24.70
2022-08-27T17:18:22.154Z,24.50
2022-08-27T17:20:51.098Z,24.40
2022-08-27T17:23:24.771Z,24.20
2022-08-27T17:25:52.859Z,23.90
2022-08-27T17:28:21.249Z,23.90
2022-08-27T17:30:49.568Z,23.90
2022-08-27T17:33:23.843Z,23.70
2022-08-27T17:35:51.867Z,23.90
2022-08-27T17:38:21.409Z,24.00
2022-08-27T17:40:49.451Z,23.80
2022-08-27T17:43:21.317Z,23.70
2022-08-27T17:45:49.983Z,23.50
2022-08-27T17:48:22.687Z,23.40
2022-08-27T17:50:54.416Z,23.40
2022-08-27T17:53:24.059Z,23.40
2022-08-27T17:55:52.162Z,23.30
2022-08-27T17:58:20.989Z,23.10
2022-08-27T18:00:49.050Z,23.10
2022-08-27T18:03:20.909Z,23.00
2022-08-27T18:05:49.985Z,22.80
2022-08-27T18:08:18.348Z,22.80
2022-08-27T18:10:49.993Z,22.80
2022-08-27T18:13:19.231Z,22.70
2022-08-27T18:15:48.313Z,22.60
2022-08-27T18:18:16.794Z,22.50
2022-08-27T18:20:45.416Z,22.50
2022-08-27T18:23:13.584Z,22.60
2022-08-27T18:25:43.167Z,22.40
2022-08-27T18:28:20.644Z,22.40
2022-08-27T18:30:49.335Z,22.40
2022-08-27T18:33:18.004Z,22.40
2022-08-27T18:35:46.235Z,22.40
2022-08-27T18:38:14.471Z,22.40
2022-08-27T18:40:46.387Z,22.50
2022-08-27T18:43:17.674Z,22.40
2022-08-27T18:45:46.135Z,22.30
2022-08-27T18:48:17.410Z,22.20
2022-08-27T18:50:48.628Z,22.20
2022-08-27T18:53:19.917Z,22.20
2022-08-27T18:55:48.671Z,22.20
2022-08-27T18:58:18.635Z,22.10
2022-08-27T19:00:49.687Z,22.10
2022-08-27T19:03:23.114Z,22.00
2022-08-27T19:05:54.797Z,21.80
2022-08-27T19:08:24.501Z,21.60
2022-08-27T19:10:52.544Z,21.60
2022-08-27T19:13:22.288Z,21.50
2022-08-27T19:15:54.822Z,21.60
2022-08-27T19:18:24.933Z,21.50
2022-08-27T19:20:53.556Z,21.50
2022-08-27T19:23:22.717Z,21.50
2022-08-27T19:25:52.072Z,21.50
2022-08-27T19:28:26.888Z,21.50
2022-08-27T19:30:55.217Z,21.50
2022-08-27T19:33:23.473Z,21.60
2022-08-27T19:35:51.563Z,21.60
2022-08-27T19:38:19.621Z,21.50
2022-08-27T19:40:47.681Z,21.50
2022-08-27T19:43:15.718Z,21.40
2022-08-27T19:45:45.238Z,21.50
2022-08-27T19:48:14.208Z,21.40
2022-08-27T19:50:42.268Z,21.40
2022-08-27T19:53:10.392Z,21.40
2022-08-27T19:55:45.319Z,21.40
2022-08-27T19:58:13.617Z,21.40
2022-08-27T20:00:41.985Z,21.30
2022-08-27T20:03:12.002Z,21.30
2022-08-27T20:05:40.662Z,21.40
2022-08-27T20:08:08.681Z,21.20
2022-08-27T20:10:37.055Z,21.10
2022-08-27T20:13:05.413Z,21.10
